CYGV

Havre St Pierre Airport

Havre St-Pierre, Quebec, Canada
TAF CYGV 221938Z 2220/2308 13008KT P6SM FEW015 FM230200 VRB03KT P6SM SCT060 PROB30 2303/2307 1/2SM FG VV002 FM230700 VRB03KT 3SM -SHRA BR BKN002 OVC060 RMK FCST BASED ON AUTO OBS. NXT FCST BY 230200Z
Issued Valid From Valid To
Jul-22 @ 19:38 UTC
(48 minutes ago)
Jul-22 @ 20:00 UTC
(26 minutes ago)
Jul-23 @ 08:00 UTC
(in 12 hours)
Jul-22 @ 20:00 to Jul-23 @ 02:00
TAF CYGV 221938Z 2220/2308 13008KT P6SM FEW015
Wind Visibility Clouds
130° at 8 knots Greater than 6 miles
  • Few at 1,500' AGL
From Jul-23 @ 02:00 to Jul-23 @ 07:00
FM230200 VRB03KT P6SM SCT060
Wind Visibility Clouds
Variable at 3 knots Greater than 6 miles
  • Scattered at 6,000' AGL
Probable  (Probability 30%) Jul-23 @ 03:00 to Jul-23 @ 07:00
PROB30 2303/2307 1/2SM FG VV002
Visibility Clouds Conditions
1/2 miles
  • Vertical visibility at 200' AGL
  • Fog
From Jul-23 @ 07:00 to Jul-23 @ 08:00
FM230700 VRB03KT 3SM -SHRA BR BKN002 OVC060 RMK FCST BASED ON AUTO OBS. NXT FCST BY 230200Z
Wind Visibility Clouds Conditions
Variable at 3 knots 3 miles
  • Broken at 200' AGL
  • Overcast at 6,000' AGL
  • Light Rain
  • Mist
TAF CYGV 221938Z 2220/2308 13008KT P6SM FEW015 FM230200 VRB03KT P6SM SCT060 PROB30 2303/2307 1/2SM FG VV002 FM230700 VRB03KT 3SM -SHRA BR BKN002 OVC060 RMK FCST BASED ON AUTO OBS. NXT FCST BY 230200Z
Issued Jul-22 @ 19:38 UTC
(48 minutes ago)
Valid From Jul-22 @ 20:00 UTC
(26 minutes ago)
Valid To Jul-23 @ 08:00 UTC
(in 12 hours)
Jul-22 @ 20:00 - Jul-23 @ 02:00
Wind Visibility
130° at 8 knots Greater than 6 miles
Clouds
  • Few at 1,500' AGL
From Jul-23 @ 02:00 - Jul-23 @ 07:00
Wind Visibility
Variable at 3 knots Greater than 6 miles
Clouds
  • Scattered at 6,000' AGL
Probability 30% Probable Jul-23 @ 03:00 - Jul-23 @ 07:00
Clouds
  • Vertical visibility at 200' AGL
Conditions
  • Fog
From Jul-23 @ 07:00 - Jul-23 @ 08:00
Wind Visibility
Variable at 3 knots 3 miles
Clouds
  • Broken at 200' AGL
  • Overcast at 6,000' AGL
Conditions
  • Light Rain
  • Mist